Boulder Creek (79, 626) Station Data

Red Flag Warning: Yes
Fire Weather Zone: 258
SDGE Region: Mountain Empire
Lat/Lon: 32.94/-116.636

Observations

Time Wind Speed/Gust Temp(F) RH Fuel Moist Fuel Temp(F) Dewpt(F) Tmax(F) Tmin(F) Accum Precip 10-min Precip SL Press(mb)
6/27 5:00pm 263 7 G 15 83° 17% - - 33° 87° 72.7° - - -
6/27 4:50pm 252 6 G 13 84° 17% - - 34° 87° 72.7° - - -
6/27 4:40pm 259 7 G 14 83° 16% - - 32° 87° 72.7° - - -
6/27 4:30pm 274 7 G 12 83° 16% - - 32° 87° 72.7° - - -
6/27 4:20pm 277 7 G 14 83° 16% - - 32° 87° 72.7° - - -
6/27 4:10pm 286 7 G 12 84° 17% - - 34° 87° 72.7° - - -
6/27 4:00pm 282 7 G 13 83° 18% - - 35° 87° 72.7° - - -
6/27 3:50pm 287 7 G 14 83° 18% - - 35° 87° 72.7° - - -
6/27 3:40pm 262 6 G 12 84° 17% - - 35° 87° 72.7° - - -
6/27 3:30pm 288 8 G 15 84° 17% - - 35° 87° 72.7° - - -
6/27 3:20pm 281 9 G 17 84° 16% - - 34° 87° 72.7° - - -
6/27 3:10pm 288 9 G 17 84° 18% - - 36° 87° 72.7° - - -
6/27 3:00pm 273 8 G 18 84° 19% - - 37° 87° 72.7° - - -
6/27 2:50pm 250 9 G 16 85° 19% - - 38° 87° 72.7° - - -
6/27 2:40pm 247 7 G 14 85° 20% - - 40° 87° 72.7° - - -
6/27 2:30pm 251 7 G 17 84° 21% - - 41° 87° 72.7° - - -
6/27 2:20pm 264 8 G 15 85° 20% - - 39° 87° 72.7° - - -
6/27 2:10pm 241 8 G 20 85° 19% - - 38° 87° 72.7° - - -
6/27 2:00pm 245 9 G 16 85° 17% - - 35° 87° 72.7° - - -
6/27 1:50pm 269 7 G 15 86° 14% - - 32° 87° 72.7° - - -
6/27 1:40pm 282 8 G 14 86° 13% - - 30° 87° 72.7° - - -
6/27 1:30pm 275 7 G 13 86° 13% - - 30° 87° 72.7° - - -
6/27 1:20pm 271 7 G 15 86° 13% - - 29° 86.6° 72.7° - - -
6/27 1:10pm 272 8 G 20 86° 13% - - 29° 86.3° 72.7° - - -
6/27 1:00pm 280 7 G 16 86° 12% - - 28° 86.1° 72.7° - - -
6/27 12:50pm 256 8 G 14 85° 12% - - 26° 86° 72.7° - - -
6/27 12:40pm 275 8 G 15 85° 11% - - 26° 86° 72.7° - - -
6/27 12:30pm 273 8 G 17 85° 11% - - 26° 86° 72.7° - - -
6/27 12:20pm 263 7 G 14 85° 11% - - 25° 85.7° 72.7° - - -
6/27 12:10pm 283 7 G 13 85° 11% - - 25° 85.6° 72.7° - - -
6/27 12:00pm 281 7 G 13 85° 11% - - 25° 85.5° 72.7° - - -
6/27 11:50am 278 6 G 13 84° 11% - - 24° 85° 72.7° - - -
6/27 11:40am 276 7 G 14 84° 11% - - 24° 85° 72.7° - - -
6/27 11:30am 261 6 G 11 85° 11% - - 24° 85° 72.7° - - -
6/27 11:20am 262 6 G 14 84° 11% - - 24° 85° 72.7° - - -
6/27 11:10am 258 5 G 10 84° 11% - - 23° 84° 72.7° - - -
6/27 11:00am 275 5 G 8 83° 11% - - 24° 83.7° 72.7° - - -
6/27 10:50am 279 6 G 12 83° 11% - - 24° 83.4° 72.7° - - -
6/27 10:40am 284 5 G 10 83° 12% - - 24° 83.4° 72.7° - - -
6/27 10:30am 273 6 G 11 82° 12% - - 24° 83.1° 72.7° - - -
6/27 10:20am 275 5 G 10 82° 12% - - 24° 82.8° 72.7° - - -
6/27 10:10am 321 7 G 11 82° 11% - - 23° 82.2° 72.7° - - -
6/27 10:00am 322 8 G 13 82° 11% - - 22° 82.2° 72.7° - - -
6/27 9:50am 317 7 G 12 82° 12% - - 23° 82.1° 72.7° - - -
6/27 9:40am 323 7 G 13 81° 11% - - 23° 81.8° 72.7° - - -
6/27 9:30am 286 4 G 9 81° 12% - - 24° 81.8° 72.7° - - -
6/27 9:20am 288 4 G 8 81° 12% - - 24° 81° 72.7° - - -
6/27 9:10am 327 6 G 11 81° 12% - - 23° 80.9° 72.7° - - -
6/27 8:50am 324 4 G 6 80° 11% - - 22° 80.2° 72.7° - - -
6/27 8:40am 341 4 G 8 79° 10% - - 18° 79.9° 72.7° - - -
6/27 8:30am 356 5 G 8 79° 11% - - 19° 79.3° 72.7° - - -
6/27 8:20am 5 4 G 8 79° 11% - - 20° 79° 72.7° - - -
6/27 8:10am 2 5 G 9 78° 11% - - 20° 78.8° 72.7° - - -
6/27 8:00am 10 5 G 8 78° 11% - - 20° 78.5° 72.7° - - -
6/27 7:50am 24 5 G 7 78° 11% - - 19° 78.3° 72.7° - - -
6/27 7:40am 18 6 G 9 77° 11% - - 19° 77.8° 72.7° - - -
6/27 7:30am 27 5 G 7 77° 12% - - 19° 77.3° 72.7° - - -
6/27 7:20am 32 4 G 6 77° 11% - - 19° 77.3° 72.7° - - -
6/27 7:10am 28 5 G 8 75° 11% - - 17° 77.3° 72.7° - - -
6/27 7:00am 26 6 G 8 75° 11% - - 17° 77.3° 72.7° - - -
6/27 6:50am 19 6 G 8 76° 11% - - 16° 77.3° 72.7° - - -
6/27 6:40am 25 6 G 12 76° 10% - - 17° 77.3° 72.7° - - -
6/27 6:30am 28 7 G 11 76° 11% - - 17° 77.3° 72.7° - - -
6/27 6:20am 36 7 G 11 75° 11% - - 18° 77.3° 72.7° - - -
6/27 6:10am 14 6 G 11 75° 11% - - 18° 77.3° 72.7° - - -
6/27 6:00am 29 5 G 9 75° 12% - - 18° 77.3° 72.7° - - -
6/27 5:50am 34 6 G 11 75° 11% - - 18° 77.3° 72.7° - - -
6/27 5:40am 30 5 G 9 74° 12% - - 18° 77.3° 72.7° - - -
6/27 5:30am 30 5 G 7 74° 12% - - 19° 77.3° 72.7° - - -
6/27 5:20am 56 4 G 7 73° 12% - - 19° 77.3° 72.7° - - -
6/27 5:10am 45 4 G 7 74° 12% - - 19° 77.3° 72.7° - - -
6/27 5:00am 52 3 G 8 74° 13% - - 19° 77.3° 72.7° - - -
6/27 4:50am 72 2 G 5 73° 13% - - 19° 77.3° 72.7° - - -
6/27 4:40am 15 2 G 5 74° 12% - - 19° 77.3° 73.3° - - -
6/27 4:30am 43 4 G 6 75° 12% - - 19° 77.3° 74° - - -
6/27 4:20am 28 5 G 8 76° 12% - - 19° 77.3° 74° - - -
6/27 4:10am 24 4 G 7 76° 12% - - 19° 77.3° 74° - - -
6/27 4:00am 23 5 G 8 76° 12% - - 19° 77.3° 74° - - -
6/27 3:50am 22 5 G 7 75° 12% - - 19° 77.3° 74° - - -
6/27 3:40am 25 5 G 9 76° 12% - - 19° 77.3° 74° - - -
6/27 3:30am 11 4 G 9 76° 12% - - 19° 77.3° 74° - - -
6/27 3:20am 20 6 G 10 76° 12% - - 19° 77.3° 74° - - -
6/27 3:10am 20 6 G 10 76° 12% - - 20° 77.3° 74° - - -
6/27 3:00am 25 7 G 10 76° 12% - - 20° 77.3° 74° - - -
6/27 2:50am 22 6 G 10 76° 12% - - 20° 77.3° 74° - - -
6/27 2:40am 12 6 G 9 76° 12% - - 20° 77.3° 74° - - -
6/27 2:30am 22 6 G 8 76° 12% - - 20° 77.3° 74° - - -
6/27 2:20am 24 6 G 8 76° 12% - - 20° 77.3° 74° - - -
6/27 2:10am 28 6 G 9 76° 12% - - 20° 77.3° 74° - - -
6/27 2:00am 25 6 G 8 76° 12% - - 20° 77.3° 74° - - -
6/27 1:50am 20 5 G 8 76° 12% - - 20° 77.3° 74° - - -
6/27 1:40am 12 5 G 8 76° 12% - - 20° 77.3° 74° - - -
6/27 1:30am 13 5 G 10 76° 12% - - 20° 77.3° 74° - - -
6/27 1:20am 18 6 G 8 76° 12% - - 19° 77.3° 74° - - -
6/27 1:10am 14 5 G 8 76° 11% - - 19° 77.3° 74° - - -
6/27 1:00am 14 6 G 11 77° 11% - - 17° 77.3° 74° - - -
6/27 12:50am 16 7 G 11 76° 10% - - 15° 76.5° 74° - - -
6/27 12:40am 21 6 G 9 75° 10% - - 14° 75.8° 74° - - -
6/27 12:30am 28 3 G 5 75° 10% - - 14° 75.6° 74° - - -
6/27 12:20am 356 2 G 5 75° 10% - - 15° 75.6° 74.5° - - -
6/27 12:10am 358 2 G 4 75° 10% - - 16° 75.3° 74.5° - - -
6/27 12:00am 353 1 G 2 75° 10% - - 16° 92.5° 74.5° - - -
6/26 11:50pm 333 2 G 4 76° 10% - - 16° 92.5° 74.9° - - -
6/26 11:40pm 312 3 G 4 76° 10% - - 17° 92.5° 74.9° - - -
6/26 11:30pm 352 4 G 7 77° 10% - - 17° 92.5° 74.9° - - -
6/26 11:20pm 355 4 G 7 77° 10% - - 17° 92.5° 74.9° - - -
6/26 11:10pm 354 5 G 7 78° 10% - - 17° 92.5° 74.9° - - -
6/26 11:00pm 5 5 G 8 78° 10% - - 17° 92.5° 74.9° - - -
6/26 10:50pm 5 5 G 9 78° 10% - - 17° 92.5° 74.9° - - -
6/26 10:40pm 357 5 G 8 78° 10% - - 17° 92.5° 74.9° - - -
6/26 10:30pm 15 5 G 8 78° 10% - - 17° 92.5° 74.9° - - -
6/26 10:20pm 11 5 G 7 78° 10% - - 17° 92.5° 74.9° - - -
6/26 10:10pm 18 5 G 9 79° 10% - - 18° 92.5° 74.9° - - -
6/26 10:00pm 13 5 G 7 78° 10% - - 18° 92.5° 74.9° - - -
6/26 9:50pm 24 5 G 8 78° 10% - - 17° 92.5° 74.9° - - -
6/26 9:40pm 28 6 G 8 78° 10% - - 17° 92.5° 74.9° - - -
6/26 9:30pm 32 4 G 6 78° 10% - - 18° 92.5° 74.9° - - -
6/26 9:20pm 32 6 G 9 76° 11% - - 19° 92.5° 74.9° - - -
6/26 9:10pm 107 4 G 6 76° 13% - - 21° 92.5° 74.9° - - -
6/26 9:00pm 51 2 G 4 76° 13% - - 21° 92.5° 75° - - -
6/26 8:50pm 56 3 G 5 76° 13% - - 21° 92.5° 75° - - -
6/26 8:40pm 93 3 G 5 76° 13% - - 22° 92.5° 75° - - -
6/26 8:30pm 114 3 G 5 76° 14% - - 22° 92.5° 75° - - -
6/26 8:20pm 118 3 G 5 77° 13% - - 23° 92.5° 75.8° - - -
6/26 8:10pm 99 2 G 4 78° 13% - - 24° 92.5° 77.3° - - -
6/26 8:00pm 78 1 G 3 79° 13% - - 24° 92.5° 78.5° - - -
6/26 7:50pm 319 2 G 5 81° 12% - - 24° 92.5° 79.9° - - -
6/26 7:40pm 298 3 G 7 81° 12% - - 23° 92.5° 81° - - -
6/26 7:30pm 291 4 G 8 82° 11% - - 22° 92.5° 81.4° - - -
6/26 7:20pm 289 6 G 11 83° 10% - - 22° 92.5° 81.5° - - -
6/26 7:10pm 296 6 G 11 83° 12% - - 26° 92.5° 81.5° - - -
6/26 7:00pm 299 6 G 11 84° 14% - - 29° 92.5° 81.5° - - -
6/26 6:50pm 295 7 G 14 85° 13% - - 29° 92.5° 81.5° - - -
6/26 6:40pm 279 7 G 13 86° 14% - - 30° 92.5° 81.5° - - -
6/26 6:30pm 278 7 G 11 86° 13% - - 29° 92.5° 81.5° - - -
6/26 6:20pm 282 8 G 14 87° 12% - - 28° 92.5° 81.5° - - -
6/26 6:10pm 284 8 G 13 87° 12% - - 28° 92.5° 81.5° - - -
6/26 6:00pm 278 8 G 14 87° 10% - - 25° 92.5° 81.5° - - -
6/26 5:50pm 292 9 G 15 88° 9% - - 23° 92.5° 81.5° - - -
6/26 5:40pm 290 9 G 17 88° 10% - - 24° 92.5° 81.5° - - -
6/26 5:30pm 285 9 G 18 88° 10% - - 26° 92.5° 81.5° - - -
6/26 5:20pm 294 9 G 16 88° 10% - - 25° 92.5° 81.5° - - -
6/26 5:10pm 275 9 G 16 89° 10% - - 26° 92.5° 81.5° - - -
6/26 5:00pm 280 8 G 17 89° 10% - - 26° 92.5° 81.5° - - -
6/26 4:50pm 283 10 G 17 89° 10% - - 26° 92.5° 81.5° - - -
6/26 4:40pm 283 11 G 20 89° 10% - - 26° 92.5° 81.5° - - -
6/26 4:30pm 291 9 G 23 90° 11% - - 27° 92.5° 81.5° - - -
6/26 4:20pm 290 10 G 19 90° 11% - - 28° 92.5° 81.5° - - -
6/26 4:10pm 285 9 G 18 90° 11% - - 27° 92.5° 81.5° - - -
6/26 4:00pm 289 10 G 21 90° 10% - - 27° 92.5° 81.5° - - -
6/26 3:50pm 285 9 G 17 90° 10% - - 27° 92.5° 81.5° - - -
6/26 3:40pm 288 10 G 20 90° 10% - - 27° 92.5° 81.5° - - -
6/26 3:30pm 288 10 G 19 90° 10% - - 27° 92.5° 81.5° - - -
6/26 3:20pm 287 11 G 22 91° 10% - - 27° 92.5° 81.5° - - -
6/26 3:10pm 296 10 G 18 91° 10% - - 27° 92.5° 81.5° - - -
6/26 3:00pm 296 10 G 21 91° 10% - - 27° 92.5° 81.5° - - -
6/26 2:50pm 295 10 G 19 91° 10% - - 26° 92.5° 81.5° - - -
6/26 2:40pm 279 9 G 19 91° 10% - - 26° 92.5° 81.5° - - -
6/26 2:30pm 297 10 G 19 91° 10% - - 27° 92.5° 81.5° - - -
6/26 2:20pm 292 9 G 18 91° 10% - - 27° 92.5° 81.5° - - -
6/26 2:10pm 270 8 G 15 91° 10% - - 27° 92.5° 81.5° - - -
6/26 2:00pm 287 9 G 16 91° 10% - - 27° 92.5° 81.5° - - -
6/26 1:50pm 282 9 G 18 92° 10% - - 27° 92.5° 81.5° - - -
6/26 1:40pm 296 10 G 18 91° 10% - - 27° 92.5° 81.5° - - -
6/26 1:30pm 279 8 G 17 91° 10% - - 27° 92.5° 81.5° - - -
6/26 1:20pm 290 10 G 17 91° 10% - - 27° 92.5° 81.5° - - -
6/26 1:10pm 277 9 G 19 91° 10% - - 27° 92.5° 81.5° - - -
6/26 1:00pm 283 8 G 14 92° 10% - - 28° 92.5° 81.5° - - -
6/26 12:50pm 286 8 G 17 92° 10% - - 29° 92.5° 81.5° - - -
6/26 12:40pm 305 9 G 16 91° 10% - - 27° 91.9° 81.5° - - -
6/26 12:30pm 304 8 G 17 91° 10% - - 28° 91.8° 81.5° - - -
6/26 12:20pm 294 9 G 15 91° 10% - - 27° 91.7° 81.5° - - -
6/26 12:10pm 283 7 G 14 91° 10% - - 28° 91.7° 81.5° - - -
6/26 12:00pm 285 7 G 16 91° 11% - - 28° 91.5° 81.5° - - -
6/26 11:50am 292 7 G 16 91° 11% - - 28° 91.4° 81.5° - - -
6/26 11:40am 303 9 G 14 91° 11% - - 29° 91.4° 81.5° - - -
6/26 11:30am 301 8 G 13 90° 12% - - 29° 90.4° 81.5° - - -
6/26 11:20am 281 7 G 14 90° 12% - - 31° 90.4° 81.5° - - -
6/26 11:10am 299 8 G 13 90° 12% - - 31° 90.2° 81.5° - - -
6/26 11:00am 295 7 G 13 90° 13% - - 32° 90.1° 81.5° - - -
6/26 10:50am 294 7 G 12 89° 12% - - 30° 89.6° 81.5° - - -
6/26 10:40am 299 7 G 13 89° 12% - - 30° 89.6° 81.5° - - -
6/26 10:30am 299 7 G 14 89° 12% - - 30° 89.6° 81.5° - - -
6/26 10:20am 292 8 G 12 89° 12% - - 30° 89.1° 81.5° - - -
6/26 10:10am 302 8 G 14 89° 12% - - 29° 89° 81.5° - - -
6/26 10:00am 299 7 G 12 88° 12% - - 30° 89° 81.5° - - -
6/26 9:50am 305 6 G 11 88° 13% - - 31° 88.4° 81.5° - - -
6/26 9:40am 317 6 G 10 88° 13% - - 30° 88.2° 81.5° - - -
6/26 9:30am 319 6 G 10 88° 13% - - 30° 87.9° 81.5° - - -
6/26 9:20am 311 6 G 11 87° 13% - - 31° 87.7° 81.5° - - -
6/26 9:10am 320 6 G 8 87° 13% - - 30° 87.5° 81.5° - - -
6/26 9:00am 335 5 G 9 87° 13% - - 30° 87.5° 81.5° - - -
6/26 8:50am 355 6 G 8 87° 12% - - 28° 87° 81.5° - - -
6/26 8:40am 3 6 G 10 86° 12% - - 27° 86.8° 81.5° - - -
6/26 8:30am 3 6 G 10 86° 12% - - 28° 86.3° 81.5° - - -
6/26 8:20am 9 6 G 10 86° 12% - - 27° 86.2° 81.5° - - -
6/26 8:10am 14 7 G 10 86° 12% - - 27° 85.8° 81.5° - - -
6/26 8:00am 14 7 G 11 85° 12% - - 27° 85.6° 81.5° - - -
6/26 7:50am 12 7 G 11 85° 12% - - 27° 85.4° 81.5° - - -
6/26 7:40am 19 8 G 11 85° 12% - - 26° 85.3° 81.5° - - -
6/26 7:30am 24 7 G 11 84° 12% - - 26° 85.3° 81.5° - - -
6/26 7:20am 25 7 G 13 83° 13% - - 26° 85.3° 81.5° - - -
6/26 7:10am 28 7 G 10 82° 13% - - 26° 85.3° 81.5° - - -
6/26 7:00am 27 8 G 11 82° 13% - - 26° 85.3° 81.5° - - -
6/26 6:50am 25 8 G 10 82° 12% - - 25° 85.3° 81.5° - - -
6/26 6:40am 26 7 G 10 82° 12% - - 25° 85.3° 81.5° - - -
6/26 6:30am 27 7 G 10 83° 12% - - 25° 85.3° 81.5° - - -
6/26 6:20am 28 7 G 11 83° 12% - - 25° 85.3° 81.5° - - -
6/26 6:10am 16 7 G 10 83° 12% - - 25° 85.3° 81.5° - - -
6/26 6:00am 21 7 G 11 83° 12% - - 25° 85.3° 81.5° - - -